Time;durP1;ratioP1;P1;durP2;ratioP2;P2;SDS_P1;SDS_P2;PMS_P1;PMS_P2;Temp;Humidity;BMP_temperature;BMP_pressure;BME280_temperature;BME280_humidity;BME280_pressure;Samples;Min_cycle;Max_cycle;Signal;HPM_P1;HPM_P2
2022/07/04 00:02:19;;;;;;;0.77;0.55;;;22.70;73.40;;;;;;5055773;28;20033;-81
2022/07/04 00:04:45;;;;;;;6.50;0.60;;;22.70;73.30;;;;;;5076662;28;20025;-77
2022/07/04 00:07:10;;;;;;;0.95;0.60;;;22.70;73.60;;;;;;5071306;28;20098;-78
2022/07/04 00:09:36;;;;;;;0.55;0.38;;;22.70;73.60;;;;;;5071573;28;20444;-78
2022/07/04 00:12:01;;;;;;;2.25;0.43;;;22.70;73.90;;;;;;5090652;28;20032;-79
2022/07/04 00:14:27;;;;;;;4.78;0.50;;;22.70;74.40;;;;;;5042644;28;20039;-82
2022/07/04 00:16:52;;;;;;;1.88;0.57;;;22.70;74.30;;;;;;5053480;28;20573;-81
2022/07/04 00:19:18;;;;;;;1.38;0.50;;;22.70;74.60;;;;;;5048901;28;20028;-78
2022/07/04 00:21:44;;;;;;;4.75;0.60;;;22.70;74.60;;;;;;5064621;28;20032;-78
2022/07/04 00:24:09;;;;;;;3.72;0.52;;;22.60;75.30;;;;;;5060985;28;20029;-78
2022/07/04 00:26:35;;;;;;;0.95;0.40;;;22.50;75.90;;;;;;5070077;28;20043;-81
2022/07/04 00:29:00;;;;;;;0.95;0.57;;;22.50;76.00;;;;;;5058694;28;20443;-80
2022/07/04 00:31:26;;;;;;;1.50;0.80;;;22.40;76.30;;;;;;5039534;28;20036;-77
2022/07/04 00:33:51;;;;;;;1.80;0.80;;;22.30;76.80;;;;;;5085214;28;20023;-77
2022/07/04 00:36:17;;;;;;;3.08;0.68;;;22.30;77.20;;;;;;5074494;28;20032;-80
2022/07/04 00:38:42;;;;;;;3.20;0.82;;;22.20;77.80;;;;;;5047859;28;20029;-82
2022/07/04 00:41:08;;;;;;;2.72;0.70;;;22.10;78.10;;;;;;5055727;28;20028;-77
2022/07/04 00:43:33;;;;;;;1.88;0.77;;;22.00;79.10;;;;;;5096242;28;20115;-78
2022/07/04 00:46:03;;;;;;;2.05;1.10;;;21.90;79.90;;;;;;5082887;28;20039;-77
2022/07/04 00:48:29;;;;;;;6.95;2.22;;;21.80;80.60;;;;;;5073331;28;20028;-78
2022/07/04 00:50:54;;;;;;;3.22;1.45;;;21.60;82.10;;;;;;5063840;28;20038;-80
2022/07/04 00:53:23;;;;;;;3.40;2.30;;;21.40;83.20;;;;;;5046355;28;20393;-81
2022/07/04 00:55:50;;;;;;;3.00;2.20;;;21.40;84.50;;;;;;5065311;28;20028;-80
2022/07/04 00:58:19;;;;;;;5.28;2.70;;;21.20;85.70;;;;;;5054213;28;20095;-78
2022/07/04 01:00:45;;;;;;;6.18;3.33;;;21.10;87.10;;;;;;5061181;28;20033;-80
2022/07/04 01:03:10;;;;;;;6.18;3.17;;;21.00;88.30;;;;;;5070005;28;20083;-79
2022/07/04 01:05:37;;;;;;;3.40;3.10;;;20.90;89.50;;;;;;5047964;28;20031;-79
2022/07/04 01:08:04;;;;;;;4.28;2.88;;;20.80;90.30;;;;;;5066624;28;20063;-79
2022/07/04 01:10:29;;;;;;;4.65;2.72;;;20.80;90.70;;;;;;5069014;28;20039;-80
2022/07/04 01:12:55;;;;;;;4.40;2.80;;;20.70;91.30;;;;;;5052409;28;20024;-81
2022/07/04 01:15:21;;;;;;;5.22;2.13;;;20.60;91.80;;;;;;5054490;28;20092;-79
2022/07/04 01:17:46;;;;;;;3.70;2.53;;;20.50;92.20;;;;;;5074595;28;20029;-79
2022/07/04 01:20:13;;;;;;;3.13;2.20;;;20.50;92.80;;;;;;5048094;28;20436;-79
2022/07/04 01:22:39;;;;;;;4.07;2.20;;;20.40;93.10;;;;;;5070150;28;20032;-83
2022/07/04 01:25:05;;;;;;;4.35;2.08;;;20.30;93.30;;;;;;5059507;28;20025;-80
2022/07/04 01:27:31;;;;;;;5.78;2.25;;;20.30;93.80;;;;;;5051915;28;20032;-79
2022/07/04 01:29:56;;;;;;;3.10;2.05;;;20.20;94.20;;;;;;5055882;28;22161;-80
2022/07/04 01:32:22;;;;;;;3.17;2.17;;;20.10;94.50;;;;;;5076794;28;20036;-80
2022/07/04 01:34:47;;;;;;;3.90;1.65;;;20.00;94.80;;;;;;5051827;28;20032;-79
2022/07/04 01:37:13;;;;;;;3.40;1.65;;;20.00;95.00;;;;;;5066444;28;20032;-80
2022/07/04 01:39:39;;;;;;;3.25;2.03;;;20.00;95.20;;;;;;5069292;28;20150;-78
2022/07/04 01:42:04;;;;;;;3.15;1.80;;;20.10;95.20;;;;;;5086771;28;20040;-79
2022/07/04 01:44:30;;;;;;;3.58;1.92;;;20.00;95.30;;;;;;5075322;28;20032;-79
2022/07/04 01:46:55;;;;;;;6.78;1.92;;;20.00;95.30;;;;;;5072878;28;20675;-80
2022/07/04 01:49:21;;;;;;;2.88;1.52;;;20.00;95.40;;;;;;5084412;28;20032;-80
2022/07/04 01:51:50;;;;;;;4.25;1.80;;;20.00;95.50;;;;;;5077690;28;20042;-79
2022/07/04 01:54:16;;;;;;;2.83;1.80;;;20.00;95.80;;;;;;5083518;28;20064;-81
2022/07/04 01:56:42;;;;;;;5.25;1.48;;;20.00;95.60;;;;;;5052849;28;20060;-79
2022/07/04 01:59:08;;;;;;;5.78;1.95;;;20.00;95.60;;;;;;5060493;28;20485;-81
2022/07/04 02:01:34;;;;;;;2.72;1.42;;;20.00;95.70;;;;;;5063271;28;20085;-80
2022/07/04 02:04:02;;;;;;;5.97;1.73;;;20.00;95.60;;;;;;5098187;28;20032;-79
2022/07/04 02:06:28;;;;;;;2.17;1.38;;;20.00;95.70;;;;;;5094695;28;20059;-81
2022/07/04 02:14:23;;;;;;;3.65;1.70;;;19.90;95.80;;;;;;5090439;28;20158;-80
2022/07/04 02:16:49;;;;;;;2.38;1.30;;;19.90;95.90;;;;;;5070832;28;20525;-79
2022/07/04 02:19:14;;;;;;;3.65;1.40;;;19.80;95.90;;;;;;5059226;28;20032;-79
2022/07/04 02:21:40;;;;;;;3.45;1.38;;;19.80;95.90;;;;;;5070989;28;20046;-82
2022/07/04 02:24:05;;;;;;;1.92;1.58;;;19.80;96.00;;;;;;5063312;28;20466;-79
2022/07/04 02:26:31;;;;;;;2.65;1.83;;;19.80;96.10;;;;;;5073500;28;20037;-79
2022/07/04 02:28:56;;;;;;;4.38;1.52;;;19.80;96.10;;;;;;5064421;28;20038;-81
2022/07/04 02:31:22;;;;;;;2.75;1.45;;;19.70;96.20;;;;;;5094858;28;20036;-79
2022/07/04 02:33:47;;;;;;;3.92;2.42;;;19.70;96.30;;;;;;5068232;28;20033;-79
2022/07/04 02:36:13;;;;;;;3.80;1.83;;;19.70;96.30;;;;;;5098520;28;20031;-81
2022/07/04 02:38:38;;;;;;;4.68;1.90;;;19.70;96.40;;;;;;5096079;28;20024;-79
2022/07/04 02:41:04;;;;;;;5.35;2.03;;;19.60;96.40;;;;;;5079091;28;20067;-80
2022/07/04 02:43:29;;;;;;;2.80;1.67;;;19.60;96.60;;;;;;5060921;28;20086;-82
2022/07/04 02:45:55;;;;;;;4.45;1.90;;;19.60;96.70;;;;;;5070011;28;20063;-80
2022/07/04 02:48:20;;;;;;;2.20;1.45;;;19.50;96.80;;;;;;5068754;28;20028;-78
2022/07/04 02:50:46;;;;;;;2.83;1.85;;;19.40;96.90;;;;;;5061653;28;20370;-78
2022/07/04 02:53:11;;;;;;;2.97;1.90;;;19.50;96.90;;;;;;5072971;28;20024;-80
2022/07/04 02:55:37;;;;;;;3.63;2.35;;;19.40;97.10;;;;;;5067402;28;20707;-78
2022/07/04 02:58:02;;;;;;;6.68;2.40;;;19.40;97.00;;;;;;5081282;28;20036;-78
2022/07/04 03:00:28;;;;;;;13.80;2.40;;;19.40;97.00;;;;;;5054509;28;20032;-82
2022/07/04 03:02:54;;;;;;;2.28;1.77;;;19.40;97.10;;;;;;5067030;28;20042;-76
2022/07/04 03:05:20;;;;;;;5.53;1.88;;;19.40;97.20;;;;;;5070719;28;20032;-79
2022/07/04 03:07:45;;;;;;;3.20;2.20;;;19.40;97.10;;;;;;5057902;28;20033;-79
2022/07/04 03:10:11;;;;;;;2.55;1.75;;;19.40;97.10;;;;;;5056733;28;20036;-78
2022/07/04 03:12:37;;;;;;;3.33;2.25;;;19.40;97.10;;;;;;5050225;28;20044;-81
2022/07/04 03:15:03;;;;;;;4.28;2.60;;;19.40;97.10;;;;;;5069025;28;20474;-80
2022/07/04 03:17:30;;;;;;;7.28;2.33;;;19.30;97.20;;;;;;5062989;28;20034;-80
2022/07/04 03:19:56;;;;;;;4.68;2.20;;;19.30;97.50;;;;;;5051069;28;20157;-78
2022/07/04 03:22:21;;;;;;;3.97;2.00;;;19.30;97.30;;;;;;5064490;28;20035;-81
2022/07/04 03:24:47;;;;;;;4.95;2.15;;;19.30;97.30;;;;;;5095913;28;20021;-79
2022/07/04 03:27:12;;;;;;;4.30;2.13;;;19.20;97.40;;;;;;5082283;28;20139;-79
2022/07/04 03:29:38;;;;;;;4.55;2.10;;;19.20;97.50;;;;;;5062385;28;20046;-78
2022/07/04 03:32:04;;;;;;;2.40;2.20;;;19.20;97.40;;;;;;5072551;28;20086;-82
2022/07/04 03:34:29;;;;;;;3.53;1.88;;;19.20;97.40;;;;;;5071655;28;20037;-79
2022/07/04 03:36:55;;;;;;;5.32;2.25;;;19.20;97.40;;;;;;5052347;28;20336;-79
2022/07/04 03:39:21;;;;;;;2.42;2.22;;;19.20;97.40;;;;;;5063943;28;20043;-78
2022/07/04 03:41:47;;;;;;;4.65;2.10;;;19.20;97.30;;;;;;5068225;28;20028;-79
2022/07/04 03:44:12;;;;;;;3.83;1.90;;;19.30;97.30;;;;;;5070589;28;20457;-77
2022/07/04 03:46:38;;;;;;;3.38;1.80;;;19.20;97.20;;;;;;5097134;28;20028;-78
2022/07/04 03:49:03;;;;;;;4.90;2.15;;;19.30;97.10;;;;;;5094133;28;20149;-80
2022/07/04 03:51:29;;;;;;;3.40;1.88;;;19.30;97.20;;;;;;5058955;28;20025;-80
2022/07/04 03:53:54;;;;;;;1.70;1.50;;;19.30;97.00;;;;;;5068700;28;20466;-78
2022/07/04 03:56:20;;;;;;;3.22;1.83;;;19.30;97.00;;;;;;5054582;28;20514;-79
2022/07/04 03:58:48;;;;;;;1.60;1.40;;;19.30;96.90;;;;;;5051892;28;20029;-81
2022/07/04 04:01:18;;;;;;;3.47;1.50;;;19.40;97.00;;;;;;5069088;28;20033;-80
2022/07/04 04:06:29;;;;;;;2.53;1.50;;;19.50;96.50;;;;;;5064102;28;20051;-78
2022/07/04 04:08:55;;;;;;;3.00;1.50;;;19.50;96.20;;;;;;5053596;28;20084;-79
2022/07/04 04:11:20;;;;;;;2.67;1.20;;;19.50;96.20;;;;;;5058210;28;20032;-81
2022/07/04 04:13:46;;;;;;;3.88;1.33;;;19.40;96.10;;;;;;5071678;28;20035;-79
2022/07/04 04:16:11;;;;;;;2.10;1.20;;;19.40;96.10;;;;;;5066106;28;20043;-79
2022/07/04 04:18:37;;;;;;;1.65;0.90;;;19.40;96.00;;;;;;5069043;28;20382;-79
2022/07/04 04:21:03;;;;;;;1.98;1.10;;;19.30;96.20;;;;;;5080570;28;20033;-79
2022/07/04 04:23:28;;;;;;;1.90;1.20;;;19.30;96.20;;;;;;5061070;28;20055;-79
2022/07/04 04:25:54;;;;;;;2.60;1.00;;;19.30;96.20;;;;;;5080965;28;20477;-80
2022/07/04 04:28:19;;;;;;;5.45;1.20;;;19.20;96.10;;;;;;5053603;28;20123;-79
2022/07/04 04:30:45;;;;;;;1.95;1.33;;;19.20;96.10;;;;;;5087320;28;20118;-79
2022/07/04 04:33:11;;;;;;;5.07;1.15;;;19.20;96.10;;;;;;5101696;28;20095;-82
2022/07/04 04:35:36;;;;;;;2.70;1.65;;;19.30;96.00;;;;;;5053549;28;20096;-79
2022/07/04 04:38:02;;;;;;;2.53;1.00;;;19.30;96.00;;;;;;5052534;28;20056;-81
2022/07/04 04:40:27;;;;;;;2.45;0.85;;;19.30;96.00;;;;;;5061679;28;20043;-77
2022/07/04 04:42:53;;;;;;;1.85;1.13;;;19.20;95.90;;;;;;5079237;28;20048;-78
2022/07/04 04:45:18;;;;;;;1.60;0.90;;;19.20;95.90;;;;;;5070759;28;20084;-82
2022/07/04 04:47:44;;;;;;;2.10;0.85;;;19.20;95.90;;;;;;5096366;28;20508;-79
2022/07/04 04:50:11;;;;;;;3.53;0.75;;;19.20;96.00;;;;;;5047026;28;20475;-80
2022/07/04 04:52:46;;;;;;;4.80;1.42;;;19.20;95.90;;;;;;5049679;28;20036;-78
2022/07/04 04:55:11;;;;;;;1.42;0.90;;;19.30;96.00;;;;;;5070413;28;20035;-77
2022/07/04 04:57:37;;;;;;;2.67;1.33;;;19.30;95.80;;;;;;5089423;28;20028;-80
2022/07/04 05:00:04;;;;;;;1.00;0.68;;;19.40;95.70;;;;;;5068617;28;20049;-79
2022/07/04 05:02:30;;;;;;;1.85;0.90;;;19.40;95.50;;;;;;5053238;28;20031;-78
2022/07/04 05:04:56;;;;;;;3.13;0.90;;;19.50;95.10;;;;;;5072470;28;20389;-79
2022/07/04 05:07:21;;;;;;;1.23;1.00;;;19.40;95.20;;;;;;5058625;28;20036;-78
2022/07/04 05:09:47;;;;;;;2.83;0.90;;;19.30;95.20;;;;;;5057611;28;20020;-81
2022/07/04 05:12:13;;;;;;;3.67;1.20;;;19.40;95.30;;;;;;5082088;28;20375;-78
2022/07/04 05:14:38;;;;;;;1.27;0.70;;;19.20;95.30;;;;;;5070170;28;20351;-79
2022/07/04 05:17:04;;;;;;;1.40;0.90;;;19.30;95.30;;;;;;5089209;28;20072;-80
2022/07/04 05:19:29;;;;;;;1.20;0.80;;;19.30;95.20;;;;;;5074339;28;20040;-79
2022/07/04 05:21:55;;;;;;;1.98;0.80;;;19.40;95.10;;;;;;5063922;28;20065;-80
2022/07/04 05:24:21;;;;;;;1.55;0.68;;;19.40;94.80;;;;;;5055103;28;20029;-78
2022/07/04 05:26:46;;;;;;;1.08;0.85;;;19.40;94.80;;;;;;5064158;28;20061;-79
2022/07/04 05:29:13;;;;;;;1.75;0.70;;;19.50;94.80;;;;;;5066623;28;20118;-79
2022/07/04 05:31:38;;;;;;;1.42;0.95;;;19.50;94.30;;;;;;5075837;28;20025;-78
2022/07/04 05:34:04;;;;;;;1.65;0.90;;;19.40;94.40;;;;;;5055764;28;20039;-78
2022/07/04 05:36:30;;;;;;;2.00;1.08;;;19.50;94.30;;;;;;5072188;28;20478;-78
2022/07/04 05:38:57;;;;;;;2.33;0.80;;;19.50;94.30;;;;;;5046322;28;20490;-79
2022/07/04 05:41:23;;;;;;;1.10;0.70;;;19.50;94.20;;;;;;5066129;28;20040;-85
2022/07/04 05:43:49;;;;;;;2.85;0.57;;;19.50;94.20;;;;;;5052496;28;20030;-79
2022/07/04 05:46:14;;;;;;;1.02;0.63;;;19.60;94.30;;;;;;5085821;28;20032;-78
2022/07/04 05:48:40;;;;;;;1.42;0.65;;;19.70;94.10;;;;;;5102109;28;20052;-79
2022/07/04 05:51:06;;;;;;;1.35;0.65;;;19.80;93.60;;;;;;5103479;28;20446;-78
2022/07/04 05:53:32;;;;;;;1.60;0.70;;;19.80;93.70;;;;;;5067792;28;20021;-79
2022/07/04 05:55:57;;;;;;;0.95;0.50;;;19.90;93.70;;;;;;5048596;28;20032;-77
2022/07/04 05:58:23;;;;;;;1.83;0.90;;;19.80;93.50;;;;;;5051706;28;20046;-79
2022/07/04 06:00:48;;;;;;;2.08;0.75;;;19.90;93.80;;;;;;5057125;28;20115;-78
2022/07/04 06:03:14;;;;;;;2.78;0.80;;;20.00;93.40;;;;;;5093877;28;20048;-79
2022/07/04 06:05:39;;;;;;;3.25;0.85;;;20.00;93.40;;;;;;5068494;28;20063;-81
2022/07/04 06:08:05;;;;;;;2.42;0.80;;;20.00;93.50;;;;;;5051702;28;20032;-79
2022/07/04 06:10:30;;;;;;;0.75;0.55;;;20.10;93.20;;;;;;5068251;28;20614;-80
2022/07/04 06:12:56;;;;;;;2.08;0.88;;;20.10;93.20;;;;;;5059375;28;20024;-78
2022/07/04 06:15:21;;;;;;;2.25;0.77;;;20.10;93.20;;;;;;5080105;28;20489;-79
2022/07/04 06:17:47;;;;;;;1.00;0.60;;;20.10;93.10;;;;;;5061696;28;20024;-79
2022/07/04 06:20:13;;;;;;;1.15;0.73;;;20.10;93.10;;;;;;5090983;28;20041;-78
2022/07/04 06:22:40;;;;;;;3.70;0.77;;;20.20;92.80;;;;;;5099884;28;20466;-82
2022/07/04 06:25:09;;;;;;;3.40;0.68;;;20.20;92.90;;;;;;5061237;28;20031;-78
2022/07/04 06:27:35;;;;;;;2.90;1.08;;;20.30;92.90;;;;;;5091520;28;20028;-79
2022/07/04 06:30:00;;;;;;;2.90;0.70;;;20.50;92.60;;;;;;5078855;28;20026;-78
2022/07/04 06:32:26;;;;;;;3.72;0.70;;;20.70;92.10;;;;;;5092914;28;20017;-78
2022/07/04 06:37:36;;;;;;;0.90;0.50;;;20.80;91.80;;;;;;5081728;28;22115;-78
2022/07/04 06:40:01;;;;;;;2.25;0.50;;;20.80;91.60;;;;;;5055722;28;20064;-78
2022/07/04 06:42:26;;;;;;;1.00;0.60;;;20.90;91.70;;;;;;5066332;28;20029;-79
2022/07/04 06:44:52;;;;;;;4.20;0.60;;;20.90;91.30;;;;;;5087589;28;20103;-79
2022/07/04 06:47:17;;;;;;;2.63;0.57;;;21.00;91.00;;;;;;5063120;28;20032;-78
2022/07/04 06:49:43;;;;;;;0.95;0.60;;;21.10;90.50;;;;;;5060198;28;20531;-78
2022/07/04 06:52:08;;;;;;;1.27;0.57;;;21.10;90.50;;;;;;5065330;28;20080;-81
2022/07/04 06:54:34;;;;;;;1.17;0.40;;;21.20;90.60;;;;;;5052609;28;20589;-79
2022/07/04 06:56:59;;;;;;;1.25;0.57;;;21.20;90.30;;;;;;5071781;28;20036;-79
2022/07/04 06:59:25;;;;;;;1.10;0.50;;;21.30;91.00;;;;;;5072471;28;20510;-79
2022/07/04 07:01:50;;;;;;;1.65;0.52;;;21.20;90.20;;;;;;5054890;28;20040;-79
2022/07/04 07:04:16;;;;;;;1.55;0.63;;;21.30;89.80;;;;;;5055035;28;20025;-78
2022/07/04 07:06:41;;;;;;;1.83;0.60;;;21.40;89.20;;;;;;5058248;28;20033;-80
2022/07/04 07:09:07;;;;;;;3.08;0.30;;;21.50;87.80;;;;;;5068436;28;20081;-79
2022/07/04 07:11:32;;;;;;;1.98;0.40;;;21.50;87.10;;;;;;5052260;28;20470;-79
2022/07/04 07:13:58;;;;;;;1.92;0.40;;;21.60;86.80;;;;;;5063148;28;20038;-78
2022/07/04 07:16:25;;;;;;;2.88;0.50;;;21.60;87.20;;;;;;5064873;28;20024;-78
2022/07/04 07:18:50;;;;;;;1.00;0.50;;;21.80;86.40;;;;;;5055048;28;20032;-79
2022/07/04 07:21:17;;;;;;;6.22;0.60;;;21.80;85.90;;;;;;5072202;28;20029;-83
2022/07/04 07:23:43;;;;;;;0.88;0.40;;;21.90;86.20;;;;;;5051806;28;20127;-78
2022/07/04 07:26:10;;;;;;;1.05;0.30;;;21.90;85.00;;;;;;5041421;28;20112;-80
2022/07/04 07:28:35;;;;;;;0.50;0.40;;;22.10;85.20;;;;;;5049724;28;20039;-80
2022/07/04 07:31:02;;;;;;;2.40;0.47;;;22.10;84.50;;;;;;5089160;28;20028;-81
2022/07/04 07:33:27;;;;;;;1.17;0.60;;;22.30;84.70;;;;;;5072011;28;20618;-81
2022/07/04 07:35:53;;;;;;;1.25;0.50;;;22.30;84.20;;;;;;5097076;28;20028;-79
2022/07/04 07:38:18;;;;;;;1.25;0.60;;;22.40;83.80;;;;;;5071940;28;20078;-81
2022/07/04 07:40:44;;;;;;;2.20;0.45;;;22.40;83.80;;;;;;5053791;28;20040;-79
2022/07/04 07:43:09;;;;;;;0.73;0.40;;;22.40;82.80;;;;;;5079569;28;20506;-80
2022/07/04 07:45:35;;;;;;;4.28;0.73;;;22.60;83.30;;;;;;5066913;28;20020;-82
2022/07/04 07:48:01;;;;;;;1.25;0.50;;;22.70;82.10;;;;;;5105415;28;20042;-79
2022/07/04 07:50:26;;;;;;;1.10;0.50;;;22.70;81.80;;;;;;5069622;28;20027;-80
2022/07/04 07:52:52;;;;;;;0.80;0.47;;;22.90;82.50;;;;;;5071183;28;20028;-79
2022/07/04 07:55:17;;;;;;;7.65;0.65;;;23.10;80.90;;;;;;5050582;28;20028;-80
2022/07/04 07:57:43;;;;;;;1.10;0.50;;;23.30;80.40;;;;;;5052003;28;20032;-81
2022/07/04 08:00:09;;;;;;;3.30;0.50;;;23.40;78.40;;;;;;5071557;28;20037;-80
2022/07/04 08:05:18;;;;;;;0.90;0.40;;;23.70;78.60;;;;;;5070496;28;20078;-78
2022/07/04 08:07:44;;;;;;;0.98;0.50;;;24.00;76.90;;;;;;5070532;28;20037;-83
2022/07/04 08:10:09;;;;;;;3.15;0.60;;;24.10;77.00;;;;;;5052852;28;20039;-80
2022/07/04 08:12:35;;;;;;;1.60;0.45;;;24.30;76.40;;;;;;5048350;28;20025;-80
2022/07/04 08:15:01;;;;;;;0.95;0.40;;;24.40;77.00;;;;;;5056914;28;20071;-80
2022/07/04 08:17:28;;;;;;;2.28;0.40;;;24.50;75.60;;;;;;5073345;28;20028;-80
2022/07/04 08:19:53;;;;;;;1.83;0.38;;;24.50;75.20;;;;;;5060545;28;20444;-80
2022/07/04 08:22:19;;;;;;;2.60;0.50;;;24.50;74.60;;;;;;5054274;28;20041;-79
2022/07/04 08:24:44;;;;;;;1.63;0.45;;;24.50;73.80;;;;;;5050972;28;20036;-80
2022/07/04 08:27:11;;;;;;;3.55;0.70;;;24.50;75.20;;;;;;5052129;28;20029;-81
2022/07/04 08:29:37;;;;;;;1.10;0.40;;;24.60;75.90;;;;;;5069475;28;20095;-79
2022/07/04 08:32:03;;;;;;;1.17;0.30;;;24.80;74.80;;;;;;5050840;28;20079;-80
2022/07/04 08:34:28;;;;;;;1.65;0.50;;;24.70;73.00;;;;;;5068937;28;20027;-80
2022/07/04 08:36:54;;;;;;;2.30;0.70;;;24.70;74.50;;;;;;5083476;28;20039;-82
2022/07/04 08:39:19;;;;;;;1.63;0.40;;;24.90;73.20;;;;;;5052304;28;20125;-81
2022/07/04 08:41:45;;;;;;;4.93;0.50;;;25.10;72.80;;;;;;5050939;28;20037;-80
2022/07/04 08:44:11;;;;;;;1.88;0.40;;;25.20;72.70;;;;;;5049954;28;20644;-81
2022/07/04 08:46:39;;;;;;;2.03;0.50;;;25.20;73.00;;;;;;5056557;28;20109;-78
2022/07/04 08:49:17;;;;;;;0.73;0.40;;;25.30;72.70;;;;;;5063756;28;20029;-81
2022/07/04 08:51:58;;;;;;;3.03;0.47;;;25.40;73.40;;;;;;5044468;28;20493;-82
2022/07/04 08:59:55;;;;;;;1.55;0.50;;;25.10;72.90;;;;;;5064970;28;20040;-80
2022/07/04 09:02:23;;;;;;;1.30;0.40;;;24.90;72.50;;;;;;5058103;28;20025;-81
2022/07/04 09:04:49;;;;;;;1.55;0.50;;;24.90;73.70;;;;;;5042720;28;20115;-79
2022/07/04 09:07:15;;;;;;;5.78;0.55;;;24.90;72.60;;;;;;5039060;28;20485;-80
2022/07/04 09:09:42;;;;;;;2.85;0.63;;;24.70;72.90;;;;;;5050673;28;20043;-80
2022/07/04 09:12:10;;;;;;;0.90;0.30;;;24.50;72.80;;;;;;5067496;28;20035;-79
2022/07/04 09:14:36;;;;;;;2.75;0.40;;;24.30;73.00;;;;;;5050524;28;20522;-79
2022/07/04 09:17:03;;;;;;;2.90;0.30;;;24.20;73.20;;;;;;5048947;28;20055;-80
2022/07/04 09:19:30;;;;;;;1.15;0.38;;;24.10;72.50;;;;;;5050880;28;20036;-79
2022/07/04 09:21:56;;;;;;;1.88;0.50;;;24.10;73.00;;;;;;5049934;28;20059;-79
2022/07/04 09:24:43;;;;;;;1.20;0.40;;;24.10;72.90;;;;;;5047712;28;20032;-78
2022/07/04 09:27:09;;;;;;;3.95;0.60;;;24.00;73.00;;;;;;5035576;28;20112;-82
2022/07/04 09:29:52;;;;;;;0.75;0.40;;;24.00;74.20;;;;;;5080430;28;20111;-79
2022/07/04 09:32:33;;;;;;;1.00;0.40;;;24.00;73.40;;;;;;5063823;28;20398;-79
2022/07/04 09:34:59;;;;;;;1.20;0.40;;;24.20;74.00;;;;;;5066746;28;20021;-79
2022/07/04 09:37:53;;;;;;;1.45;0.40;;;24.30;72.30;;;;;;5058209;28;20405;-81
2022/07/04 09:40:29;;;;;;;2.05;0.50;;;24.50;72.80;;;;;;5060969;28;20489;-79
2022/07/04 09:42:59;;;;;;;0.90;0.40;;;24.60;71.00;;;;;;5049538;28;20036;-80
2022/07/04 09:45:25;;;;;;;3.45;0.55;;;24.70;70.50;;;;;;5044838;28;20514;-79
2022/07/04 09:47:56;;;;;;;1.15;0.30;;;24.70;70.70;;;;;;5037808;28;20025;-79
2022/07/04 09:50:22;;;;;;;1.30;0.32;;;24.70;71.00;;;;;;5048868;28;20063;-79
2022/07/04 09:52:48;;;;;;;1.65;0.40;;;24.70;68.20;;;;;;5067468;28;20025;-78
2022/07/04 09:55:24;;;;;;;1.38;0.30;;;24.70;68.40;;;;;;5060203;28;20055;-79
2022/07/04 09:57:51;;;;;;;1.02;0.30;;;24.70;69.20;;;;;;5061287;28;20035;-79
2022/07/04 10:00:22;;;;;;;1.95;0.40;;;24.80;67.50;;;;;;5046682;28;20419;-79
2022/07/04 10:02:49;;;;;;;1.75;0.30;;;24.80;67.70;;;;;;5050522;28;20033;-79
2022/07/04 10:05:29;;;;;;;6.55;0.40;;;24.80;67.10;;;;;;5064992;28;20028;-79
2022/07/04 10:07:57;;;;;;;2.20;0.25;;;25.00;67.60;;;;;;5079177;28;20081;-80
2022/07/04 10:10:28;;;;;;;1.55;0.40;;;25.10;65.20;;;;;;5062730;28;20121;-79
2022/07/04 10:13:05;;;;;;;2.63;0.57;;;25.30;65.70;;;;;;5065967;28;20032;-81
2022/07/04 10:15:32;;;;;;;0.85;0.22;;;25.50;68.40;;;;;;5081799;28;20024;-80
2022/07/04 10:17:59;;;;;;;2.47;0.43;;;25.80;65.60;;;;;;5052646;28;21923;-80
2022/07/04 10:20:25;;;;;;;3.83;0.30;;;26.00;63.70;;;;;;5052350;28;20088;-82
2022/07/04 10:22:51;;;;;;;2.95;0.40;;;26.10;68.30;;;;;;5044722;28;20375;-84
2022/07/04 10:25:17;;;;;;;0.50;0.30;;;26.40;64.30;;;;;;5061537;28;20021;-83
2022/07/04 10:27:44;;;;;;;0.43;0.32;;;26.60;63.90;;;;;;5083473;28;20113;-81
2022/07/04 10:30:14;;;;;;;1.13;0.20;;;26.70;62.40;;;;;;5063594;28;20025;-80
2022/07/04 10:32:43;;;;;;;1.33;0.30;;;26.60;61.70;;;;;;5065815;28;20029;-80
2022/07/04 10:35:11;;;;;;;1.67;0.35;;;26.60;62.60;;;;;;5065634;28;20050;-80
2022/07/04 10:38:01;;;;;;;1.73;0.40;;;26.60;62.70;;;;;;5067486;28;20041;-80
2022/07/04 10:40:47;;;;;;;1.38;0.40;;;26.30;63.20;;;;;;5045330;28;20086;-83
2022/07/04 10:46:02;;;;;;;2.40;0.40;;;26.40;66.80;;;;;;5041778;28;20478;-80
2022/07/04 10:48:27;;;;;;;1.73;0.40;;;26.60;64.50;;;;;;5070547;28;20043;-80
2022/07/04 10:51:02;;;;;;;1.83;0.35;;;26.90;63.70;;;;;;5069227;28;20095;-80
2022/07/04 10:53:28;;;;;;;1.20;0.40;;;27.10;63.50;;;;;;5073332;28;20437;-79
2022/07/04 10:56:03;;;;;;;2.88;0.60;;;27.40;64.10;;;;;;5067805;28;20035;-82
2022/07/04 10:58:42;;;;;;;2.05;0.40;;;27.40;63.90;;;;;;5061463;28;20024;-80
2022/07/04 11:01:15;;;;;;;3.10;0.45;;;27.60;64.70;;;;;;5058594;28;20409;-80
2022/07/04 11:03:49;;;;;;;0.95;0.38;;;27.90;62.20;;;;;;5065977;28;20083;-78
2022/07/04 11:06:33;;;;;;;1.63;0.40;;;28.30;60.60;;;;;;5068334;28;20135;-79
2022/07/04 11:09:19;;;;;;;0.32;0.30;;;28.40;61.20;;;;;;5069121;28;20339;-79
2022/07/04 11:11:58;;;;;;;1.27;0.40;;;28.20;60.70;;;;;;5051302;28;20029;-80
2022/07/04 11:14:44;;;;;;;2.10;0.47;;;28.00;61.90;;;;;;5062205;28;20036;-79
2022/07/04 11:17:14;;;;;;;0.88;0.35;;;27.80;63.20;;;;;;5044532;28;20764;-79
2022/07/04 11:19:41;;;;;;;3.08;0.40;;;27.80;65.10;;;;;;5056663;28;20425;-82
2022/07/04 11:22:09;;;;;;;3.45;1.17;;;28.00;65.10;;;;;;5049315;28;20036;-83
2022/07/04 11:24:35;;;;;;;1.48;0.60;;;28.10;61.10;;;;;;5050793;28;20036;-81
2022/07/04 11:27:01;;;;;;;1.30;0.30;;;28.00;61.70;;;;;;5074417;28;20025;-80
2022/07/04 11:29:29;;;;;;;0.40;0.32;;;27.90;61.00;;;;;;5055902;28;20029;-80
2022/07/04 11:31:54;;;;;;;3.10;0.55;;;27.70;62.70;;;;;;5050462;28;20033;-80
2022/07/04 11:34:21;;;;;;;1.45;0.40;;;27.70;63.20;;;;;;5051752;28;20229;-83
2022/07/04 11:36:49;;;;;;;1.30;0.40;;;27.90;66.40;;;;;;5052943;28;20545;-81
2022/07/04 11:39:20;;;;;;;1.10;0.50;;;28.20;61.60;;;;;;5068510;28;20067;-80
2022/07/04 11:47:31;;;;;;;0.98;0.63;;;29.10;60.00;;;;;;5066800;28;20047;-80
2022/07/04 11:49:58;;;;;;;1.77;0.77;;;29.00;60.20;;;;;;5048457;28;20028;-83
2022/07/04 11:52:28;;;;;;;3.05;0.57;;;29.10;60.90;;;;;;5063792;28;20056;-82
2022/07/04 11:54:54;;;;;;;1.58;0.40;;;29.10;59.70;;;;;;5049922;28;20025;-81
2022/07/04 11:57:25;;;;;;;1.38;0.50;;;29.30;62.80;;;;;;5066291;28;20120;-81
2022/07/04 12:00:04;;;;;;;1.83;0.50;;;29.60;59.40;;;;;;5062918;28;20115;-81
2022/07/04 12:02:32;;;;;;;1.25;0.50;;;29.90;57.80;;;;;;5049428;28;20032;-80
2022/07/04 12:04:59;;;;;;;1.63;0.60;;;30.00;59.20;;;;;;5072525;28;20017;-82
2022/07/04 12:07:26;;;;;;;2.40;0.60;;;30.10;59.50;;;;;;5054562;28;20036;-80
2022/07/04 12:09:53;;;;;;;2.92;0.70;;;30.10;57.30;;;;;;5037470;28;20029;-80
2022/07/04 12:12:19;;;;;;;1.55;0.50;;;29.70;58.50;;;;;;5062593;28;20040;-80
2022/07/04 12:15:21;;;;;;;2.00;0.65;;;29.50;57.40;;;;;;5065601;28;20323;-82
2022/07/04 12:17:50;;;;;;;2.08;0.60;;;29.20;59.50;;;;;;4985025;28;20026;-80
2022/07/04 12:20:17;;;;;;;1.27;0.40;;;29.30;60.20;;;;;;5030980;28;20577;-80
2022/07/04 12:22:51;;;;;;;0.95;0.63;;;29.50;58.40;;;;;;5054156;28;20028;-82
2022/07/04 12:25:29;;;;;;;0.98;0.60;;;29.70;57.90;;;;;;5056135;28;20024;-80
2022/07/04 12:28:19;;;;;;;1.52;0.52;;;29.70;57.90;;;;;;5064871;28;20036;-80
2022/07/04 12:30:55;;;;;;;3.03;0.80;;;29.70;57.60;;;;;;5066311;28;20036;-82
2022/07/04 12:33:24;;;;;;;1.77;0.73;;;29.50;58.50;;;;;;5072912;28;20382;-83
2022/07/04 12:35:50;;;;;;;1.40;0.60;;;29.50;57.30;;;;;;5067773;28;20025;-80
2022/07/04 12:38:17;;;;;;;2.92;0.93;;;29.40;58.90;;;;;;5051141;28;20111;-80
2022/07/04 12:41:13;;;;;;;1.45;0.70;;;29.30;58.70;;;;;;5068985;28;20033;-80
2022/07/04 12:43:42;;;;;;;11.55;0.90;;;29.20;57.80;;;;;;5035002;28;20041;-81
2022/07/04 12:46:24;;;;;;;2.83;0.80;;;29.10;58.40;;;;;;5041813;28;20112;-83
2022/07/04 12:48:51;;;;;;;2.70;0.60;;;29.30;57.00;;;;;;5072499;28;20032;-80
2022/07/04 12:51:19;;;;;;;0.90;0.60;;;29.30;58.20;;;;;;5069972;28;20035;-81
2022/07/04 12:53:47;;;;;;;3.33;0.85;;;29.40;57.50;;;;;;5066880;28;20032;-83
2022/07/04 12:56:29;;;;;;;7.78;0.60;;;29.50;57.00;;;;;;5069025;28;20451;-82
2022/07/04 12:58:54;;;;;;;1.13;0.50;;;29.80;57.00;;;;;;5079723;28;20032;-81
2022/07/04 13:01:20;;;;;;;2.13;0.50;;;29.90;56.10;;;;;;5043984;28;20089;-83
2022/07/04 13:03:45;;;;;;;1.25;0.55;;;30.00;57.60;;;;;;5060776;28;20035;-82
2022/07/04 13:06:11;;;;;;;1.45;0.68;;;30.20;55.40;;;;;;5050624;28;20382;-81
2022/07/04 13:08:37;;;;;;;1.73;0.60;;;30.20;55.60;;;;;;5050639;28;20079;-81
2022/07/04 13:13:47;;;;;;;1.70;0.55;;;30.50;54.60;;;;;;5061025;28;20063;-81
2022/07/04 13:16:12;;;;;;;1.23;0.55;;;30.50;53.70;;;;;;5063755;28;20044;-80
2022/07/04 13:18:38;;;;;;;1.95;0.40;;;30.50;53.70;;;;;;5035262;28;20110;-80
2022/07/04 13:21:03;;;;;;;1.02;0.50;;;30.50;53.10;;;;;;5071637;28;20099;-81